Time;durP1;ratioP1;P1;durP2;ratioP2;P2;SDS_P1;SDS_P2;PMS_P1;PMS_P2;Temp;Humidity;BMP_temperature;BMP_pressure;BME280_temperature;BME280_humidity;BME280_pressure;Samples;Min_cycle;Max_cycle;Signal;HPM_P1;HPM_P2
2022/03/16 00:01:02;;;;;;;0.00;0.00;;;;;22.30;100703.00;;;;5101387;28;20055;-79
2022/03/16 00:03:32;;;;;;;0.00;0.00;;;;;22.30;100706.00;;;;5098938;28;20101;-77
2022/03/16 00:06:01;;;;;;;0.00;0.00;;;;;22.30;100685.00;;;;5086366;28;20044;-77
2022/03/16 00:08:31;;;;;;;0.00;0.00;;;;;22.30;100712.00;;;;5102006;28;20052;-78
2022/03/16 00:11:01;;;;;;;0.00;0.00;;;;;22.30;100706.00;;;;5101994;28;20064;-79
2022/03/16 00:13:33;;;;;;;0.00;0.00;;;;;22.40;100733.00;;;;5089712;28;20064;-78
2022/03/16 00:16:03;;;;;;;0.00;0.00;;;;;22.40;100730.00;;;;5105518;28;20047;-80
2022/03/16 00:18:33;;;;;;;0.00;0.00;;;;;22.30;100725.00;;;;5088428;28;20048;-79
2022/03/16 00:21:02;;;;;;;0.00;0.00;;;;;22.30;100723.00;;;;5105717;28;20438;-80
2022/03/16 00:23:33;;;;;;;0.00;0.00;;;;;22.30;100712.00;;;;5095409;28;20169;-78
2022/03/16 00:26:03;;;;;;;;;;;;;22.30;100736.00;;;;5092852;28;20040;-80
2022/03/16 00:28:34;;;;;;;0.00;0.00;;;;;22.20;100720.00;;;;5103424;28;19924;-79
2022/03/16 00:31:05;;;;;;;0.00;0.00;;;;;22.20;100737.00;;;;5088418;28;20258;-80
2022/03/16 00:33:36;;;;;;;0.00;0.00;;;;;22.20;100708.00;;;;5087990;28;20066;-80
2022/03/16 00:36:05;;;;;;;0.00;0.00;;;;;22.20;100720.00;;;;5105316;28;20052;-79
2022/03/16 00:38:36;;;;;;;0.00;0.00;;;;;22.20;100719.00;;;;5105627;28;20044;-79
2022/03/16 00:41:07;;;;;;;0.00;0.00;;;;;22.10;100713.00;;;;5105043;28;20044;-78
2022/03/16 00:43:37;;;;;;;;;;;;;22.10;100702.00;;;;5090024;28;20089;-79
2022/03/16 00:46:06;;;;;;;0.00;0.00;;;;;22.10;100695.00;;;;5088064;28;19920;-78
2022/03/16 00:48:36;;;;;;;0.00;0.00;;;;;21.90;100668.00;;;;5104945;28;20139;-78
2022/03/16 00:51:06;;;;;;;0.00;0.00;;;;;21.90;100677.00;;;;5089945;28;20044;-79
2022/03/16 00:53:39;;;;;;;0.00;0.00;;;;;21.80;100657.00;;;;5106196;28;20054;-80
2022/03/16 00:56:09;;;;;;;0.00;0.00;;;;;21.70;100663.00;;;;5091164;28;20086;-80
2022/03/16 00:58:39;;;;;;;0.00;0.00;;;;;21.60;100639.00;;;;5107038;28;20048;-80
2022/03/16 01:01:09;;;;;;;0.00;0.00;;;;;21.60;100665.00;;;;5090645;28;20066;-79
2022/03/16 01:03:42;;;;;;;0.00;0.00;;;;;21.50;100665.00;;;;5112048;28;20036;-78
2022/03/16 01:06:20;;;;;;;0.00;0.00;;;;;21.50;100653.00;;;;5117732;28;20044;-79
2022/03/16 01:08:51;;;;;;;0.00;0.00;;;;;21.60;100658.00;;;;5122371;28;20040;-79
2022/03/16 01:11:22;;;;;;;0.00;0.00;;;;;21.60;100653.00;;;;5092908;28;20079;-80
2022/03/16 01:13:52;;;;;;;0.00;0.00;;;;;21.60;100674.00;;;;5089631;28;20051;-78
2022/03/16 01:16:21;;;;;;;0.00;0.00;;;;;21.70;100679.00;;;;5104587;28;20044;-80
2022/03/16 01:18:51;;;;;;;0.00;0.00;;;;;21.60;100681.00;;;;5105404;28;20523;-79
2022/03/16 01:21:20;;;;;;;0.00;0.00;;;;;21.60;100687.00;;;;5104828;28;20537;-80
2022/03/16 01:23:51;;;;;;;0.00;0.00;;;;;21.60;100672.00;;;;5103137;28;20695;-77
2022/03/16 01:26:21;;;;;;;0.00;0.00;;;;;21.60;100678.00;;;;5070865;28;20052;-79
2022/03/16 01:28:51;;;;;;;0.00;0.00;;;;;21.50;100658.00;;;;5104230;28;20047;-78
2022/03/16 01:31:22;;;;;;;0.00;0.00;;;;;21.50;100664.00;;;;5104106;28;20048;-79
2022/03/16 01:33:52;;;;;;;0.00;0.00;;;;;21.50;100681.00;;;;5103993;28;20446;-77
2022/03/16 01:36:21;;;;;;;0.00;0.00;;;;;21.60;100676.00;;;;5103932;28;20051;-79
2022/03/16 01:38:51;;;;;;;0.00;0.00;;;;;21.60;100660.00;;;;5088217;28;20415;-78
2022/03/16 01:41:23;;;;;;;0.00;0.00;;;;;21.70;100667.00;;;;5087399;28;20131;-79
2022/03/16 01:43:56;;;;;;;0.00;0.00;;;;;21.70;100703.00;;;;5088278;28;20040;-79
2022/03/16 01:46:26;;;;;;;1.55;0.55;;;;;21.70;100685.00;;;;5103479;28;20083;-77
2022/03/16 01:48:57;;;;;;;0.00;0.00;;;;;21.70;100679.00;;;;5104080;28;20417;-79
2022/03/16 01:51:27;;;;;;;0.00;0.00;;;;;21.70;100666.00;;;;5103110;28;20048;-78
2022/03/16 01:53:58;;;;;;;0.00;0.00;;;;;21.70;100686.00;;;;5104138;28;20048;-79
2022/03/16 01:56:28;;;;;;;0.00;0.00;;;;;21.70;100706.00;;;;5103947;28;20688;-78
2022/03/16 01:58:59;;;;;;;0.00;0.00;;;;;21.70;100712.00;;;;5103393;28;20055;-78
2022/03/16 02:01:29;;;;;;;0.00;0.00;;;;;21.60;100718.00;;;;5103558;28;20419;-78
2022/03/16 02:03:58;;;;;;;0.00;0.00;;;;;21.60;100721.00;;;;5103647;28;20143;-78
2022/03/16 02:06:28;;;;;;;0.00;0.00;;;;;21.60;100705.00;;;;5103429;28;20135;-80
2022/03/16 02:08:57;;;;;;;0.00;0.00;;;;;21.60;100711.00;;;;5103030;28;20039;-78
2022/03/16 02:11:27;;;;;;;0.00;0.00;;;;;21.60;100698.00;;;;5103145;28;20052;-78
2022/03/16 02:13:57;;;;;;;0.00;0.00;;;;;21.50;100687.00;;;;5103331;28;20048;-78
2022/03/16 02:16:26;;;;;;;0.00;0.00;;;;;21.50;100673.00;;;;5087307;28;20060;-79
2022/03/16 02:18:55;;;;;;;0.00;0.00;;;;;21.50;100690.00;;;;5103097;28;20042;-78
2022/03/16 02:21:28;;;;;;;0.00;0.00;;;;;21.50;100681.00;;;;5103254;28;20507;-79
2022/03/16 02:23:58;;;;;;;0.00;0.00;;;;;21.50;100664.00;;;;5085407;28;20036;-79
2022/03/16 02:26:27;;;;;;;0.00;0.00;;;;;21.50;100656.00;;;;5103557;28;20051;-80
2022/03/16 02:28:57;;;;;;;0.00;0.00;;;;;21.50;100673.00;;;;5102999;28;20067;-80
2022/03/16 02:31:27;;;;;;;0.00;0.00;;;;;21.50;100689.00;;;;5087671;28;20130;-80
2022/03/16 02:33:57;;;;;;;0.00;0.00;;;;;21.50;100676.00;;;;5103016;28;20047;-79
2022/03/16 02:36:27;;;;;;;0.00;0.00;;;;;21.50;100666.00;;;;5085854;28;20047;-80
2022/03/16 02:38:56;;;;;;;0.00;0.00;;;;;21.50;100651.00;;;;5087743;28;20044;-79
2022/03/16 02:41:26;;;;;;;0.00;0.00;;;;;21.50;100659.00;;;;5103256;28;20059;-80
2022/03/16 02:43:55;;;;;;;0.00;0.00;;;;;21.40;100643.00;;;;5102542;28;20051;-79
2022/03/16 02:46:25;;;;;;;0.00;0.00;;;;;21.30;100661.00;;;;5085726;28;20048;-79
2022/03/16 02:48:54;;;;;;;0.00;0.00;;;;;21.40;100657.00;;;;5102559;28;20040;-80
2022/03/16 02:51:24;;;;;;;0.00;0.00;;;;;21.40;100632.00;;;;5102666;28;20044;-80
2022/03/16 02:53:54;;;;;;;0.00;0.00;;;;;21.30;100637.00;;;;5069315;28;20052;-79
2022/03/16 02:56:27;;;;;;;0.00;0.00;;;;;21.30;100623.00;;;;5102694;28;20055;-78
2022/03/16 02:58:57;;;;;;;0.00;0.00;;;;;21.30;100625.00;;;;5102266;28;20131;-79
2022/03/16 03:01:26;;;;;;;0.00;0.00;;;;;21.20;100628.00;;;;5101948;28;20622;-78
2022/03/16 03:03:56;;;;;;;0.00;0.00;;;;;21.20;100627.00;;;;5087370;28;20040;-80
2022/03/16 03:06:27;;;;;;;0.00;0.00;;;;;21.20;100623.00;;;;5102330;28;20503;-78
2022/03/16 03:08:56;;;;;;;0.00;0.00;;;;;21.30;100639.00;;;;5102191;28;20519;-79
2022/03/16 03:11:27;;;;;;;0.00;0.00;;;;;21.30;100641.00;;;;5085012;28;20052;-79
2022/03/16 03:13:57;;;;;;;0.00;0.00;;;;;21.30;100628.00;;;;5101847;28;20105;-79
2022/03/16 03:16:26;;;;;;;0.00;0.00;;;;;21.20;100610.00;;;;5086318;28;20052;-78
2022/03/16 03:18:56;;;;;;;0.00;0.00;;;;;21.20;100643.00;;;;5086887;28;20042;-80
2022/03/16 03:21:25;;;;;;;0.00;0.00;;;;;21.30;100645.00;;;;5102217;28;20044;-78
2022/03/16 03:23:55;;;;;;;0.00;0.00;;;;;21.40;100648.00;;;;5101227;28;20089;-79
2022/03/16 03:26:25;;;;;;;0.00;0.00;;;;;21.50;100620.00;;;;5101831;28;20052;-79
2022/03/16 03:28:55;;;;;;;;;;;;;21.50;100656.00;;;;5102300;28;20052;-81
2022/03/16 03:31:25;;;;;;;0.00;0.00;;;;;21.50;100663.00;;;;5086274;28;20054;-79
2022/03/16 03:33:55;;;;;;;0.00;0.00;;;;;21.50;100671.00;;;;5101969;28;20047;-79
2022/03/16 03:36:25;;;;;;;0.00;0.00;;;;;21.60;100678.00;;;;5102064;28;20511;-79
2022/03/16 03:38:54;;;;;;;0.00;0.00;;;;;21.60;100655.00;;;;5101582;28;20036;-79
2022/03/16 03:41:24;;;;;;;0.00;0.00;;;;;21.70;100683.00;;;;5087668;28;20048;-78
2022/03/16 03:43:53;;;;;;;0.00;0.00;;;;;21.60;100675.00;;;;5086507;28;20042;-78
2022/03/16 03:46:23;;;;;;;0.00;0.00;;;;;21.50;100689.00;;;;5068083;28;20044;-80
2022/03/16 03:48:53;;;;;;;0.00;0.00;;;;;21.40;100713.00;;;;5106139;28;20147;-78
2022/03/16 03:51:22;;;;;;;0.00;0.00;;;;;21.30;100701.00;;;;5105800;28;20110;-79
2022/03/16 03:53:52;;;;;;;0.00;0.00;;;;;21.30;100716.00;;;;5106122;28;20055;-79
2022/03/16 03:56:21;;;;;;;0.00;0.00;;;;;21.20;100711.00;;;;5106059;28;20118;-78
2022/03/16 03:58:53;;;;;;;0.00;0.00;;;;;21.10;100694.00;;;;5105975;28;20036;-79
2022/03/16 04:01:22;;;;;;;0.00;0.00;;;;;21.10;100686.00;;;;5105959;28;20454;-79
2022/03/16 04:03:52;;;;;;;0.00;0.00;;;;;21.10;100675.00;;;;5072782;28;20134;-80
2022/03/16 04:06:21;;;;;;;0.00;0.00;;;;;21.00;100677.00;;;;5089308;28;20392;-80
2022/03/16 04:08:50;;;;;;;0.00;0.00;;;;;20.90;100679.00;;;;5106111;28;20048;-78
2022/03/16 04:11:20;;;;;;;0.00;0.00;;;;;20.90;100681.00;;;;5105463;28;20048;-80
2022/03/16 04:13:49;;;;;;;0.00;0.00;;;;;20.90;100673.00;;;;5105323;28;20426;-80
2022/03/16 04:16:18;;;;;;;0.00;0.00;;;;;20.80;100672.00;;;;5105287;28;20415;-80
2022/03/16 04:18:48;;;;;;;0.00;0.00;;;;;20.80;100663.00;;;;5105818;28;20058;-79
2022/03/16 04:21:17;;;;;;;0.10;0.10;;;;;20.80;100656.00;;;;5105614;28;20047;-79
2022/03/16 04:23:47;;;;;;;0.00;0.00;;;;;20.80;100644.00;;;;5106012;28;20052;-79
2022/03/16 04:26:17;;;;;;;0.00;0.00;;;;;20.70;100650.00;;;;5105664;28;20044;-79
2022/03/16 04:28:46;;;;;;;0.00;0.00;;;;;20.70;100656.00;;;;5106517;28;20055;-80
2022/03/16 04:31:15;;;;;;;0.00;0.00;;;;;20.70;100638.00;;;;5105152;28;20098;-77
2022/03/16 04:33:45;;;;;;;0.00;0.00;;;;;20.70;100629.00;;;;5105194;28;20051;-80
2022/03/16 04:36:15;;;;;;;0.00;0.00;;;;;20.60;100600.00;;;;5104981;28;20511;-81
2022/03/16 04:38:44;;;;;;;0.00;0.00;;;;;20.60;100618.00;;;;5089630;28;20094;-79
2022/03/16 04:41:14;;;;;;;2.92;2.38;;;;;20.60;100602.00;;;;5104545;28;20051;-78
2022/03/16 04:43:43;;;;;;;0.00;0.00;;;;;20.60;100628.00;;;;5089121;28;20499;-80
2022/03/16 04:46:13;;;;;;;0.00;0.00;;;;;20.60;100602.00;;;;5104542;28;20608;-80
2022/03/16 04:48:43;;;;;;;0.00;0.00;;;;;20.60;100630.00;;;;5089607;28;20569;-78
2022/03/16 04:51:13;;;;;;;0.00;0.00;;;;;20.60;100615.00;;;;5087933;28;20048;-80
2022/03/16 04:53:42;;;;;;;0.00;0.00;;;;;20.70;100629.00;;;;5088225;28;20052;-80
2022/03/16 04:56:12;;;;;;;0.00;0.00;;;;;20.70;100627.00;;;;5104298;28;20044;-80
2022/03/16 04:58:42;;;;;;;0.00;0.00;;;;;20.70;100646.00;;;;5070719;28;20098;-77
2022/03/16 05:01:12;;;;;;;0.00;0.00;;;;;20.70;100624.00;;;;5089442;28;20059;-79
2022/03/16 05:03:41;;;;;;;0.00;0.00;;;;;20.70;100620.00;;;;5104791;28;20055;-80
2022/03/16 05:06:11;;;;;;;0.00;0.00;;;;;20.70;100626.00;;;;5104690;28;20048;-79
2022/03/16 05:08:40;;;;;;;0.00;0.00;;;;;20.70;100629.00;;;;5071556;28;20098;-80
2022/03/16 05:11:10;;;;;;;0.00;0.00;;;;;20.80;100620.00;;;;5104583;28;20055;-80
2022/03/16 05:13:41;;;;;;;0.00;0.00;;;;;20.80;100611.00;;;;5089072;28;20422;-79
2022/03/16 05:16:12;;;;;;;0.00;0.00;;;;;20.80;100603.00;;;;5104082;28;20063;-79
2022/03/16 05:18:44;;;;;;;0.00;0.00;;;;;20.80;100601.00;;;;5089163;28;20048;-78
2022/03/16 05:21:14;;;;;;;0.00;0.00;;;;;20.80;100608.00;;;;5088878;28;20036;-79
2022/03/16 05:23:44;;;;;;;0.00;0.00;;;;;20.80;100580.00;;;;5087202;28;20130;-80
2022/03/16 05:26:13;;;;;;;0.00;0.00;;;;;20.90;100599.00;;;;5104796;28;20044;-79
2022/03/16 05:28:42;;;;;;;0.00;0.00;;;;;20.90;100582.00;;;;5104108;28;20048;-79
2022/03/16 05:31:12;;;;;;;0.00;0.00;;;;;21.00;100580.00;;;;5088704;28;20443;-79
2022/03/16 05:33:41;;;;;;;0.00;0.00;;;;;20.90;100589.00;;;;5103253;28;20996;-79
2022/03/16 05:36:11;;;;;;;0.00;0.00;;;;;20.90;100559.00;;;;5088790;28;20055;-80
2022/03/16 05:38:40;;;;;;;0.00;0.00;;;;;20.90;100572.00;;;;5104453;28;20527;-79
2022/03/16 05:41:11;;;;;;;0.00;0.00;;;;;21.10;100591.00;;;;5088851;28;20059;-79
2022/03/16 05:43:41;;;;;;;0.00;0.00;;;;;21.20;100576.00;;;;5087448;28;20153;-78
2022/03/16 05:46:11;;;;;;;0.00;0.00;;;;;21.10;100582.00;;;;5087933;28;20051;-78
2022/03/16 05:48:40;;;;;;;0.00;0.00;;;;;21.10;100571.00;;;;5104025;28;20051;-79
2022/03/16 05:51:10;;;;;;;0.00;0.00;;;;;21.10;100583.00;;;;5103892;28;20526;-80
2022/03/16 05:53:40;;;;;;;0.00;0.00;;;;;21.10;100588.00;;;;5087527;28;20040;-79
2022/03/16 05:56:09;;;;;;;0.00;0.00;;;;;21.10;100588.00;;;;5069731;28;20052;-79
2022/03/16 05:58:38;;;;;;;0.00;0.00;;;;;21.10;100590.00;;;;5102958;28;20040;-80
2022/03/16 06:01:08;;;;;;;0.00;0.00;;;;;20.90;100566.00;;;;5103430;28;20043;-79
2022/03/16 06:03:37;;;;;;;0.00;0.00;;;;;20.80;100568.00;;;;5103353;28;20093;-77
2022/03/16 06:06:07;;;;;;;0.00;0.00;;;;;20.80;100574.00;;;;5103436;28;20461;-78
2022/03/16 06:08:36;;;;;;;0.00;0.00;;;;;20.70;100597.00;;;;5103444;28;20126;-78
2022/03/16 06:11:06;;;;;;;0.00;0.00;;;;;20.70;100568.00;;;;5102368;28;20047;-78
2022/03/16 06:13:35;;;;;;;0.00;0.00;;;;;20.60;100597.00;;;;5103025;28;20070;-79
2022/03/16 06:16:05;;;;;;;0.00;0.00;;;;;20.50;100599.00;;;;5085892;28;20048;-78
2022/03/16 06:18:35;;;;;;;0.00;0.00;;;;;20.50;100602.00;;;;5086576;28;20487;-79
2022/03/16 06:21:04;;;;;;;0.00;0.00;;;;;20.50;100602.00;;;;5085952;28;20066;-77
2022/03/16 06:23:35;;;;;;;0.00;0.00;;;;;20.50;100592.00;;;;5087202;28;20044;-78
2022/03/16 06:26:05;;;;;;;;;;;;;20.40;100583.00;;;;5102855;28;20568;-80
2022/03/16 06:28:34;;;;;;;0.00;0.00;;;;;20.40;100577.00;;;;5102889;28;19946;-80
2022/03/16 06:31:07;;;;;;;0.00;0.00;;;;;20.50;100570.00;;;;5101875;28;20052;-79
2022/03/16 06:33:36;;;;;;;0.00;0.00;;;;;20.70;100548.00;;;;5103055;28;20131;-80
2022/03/16 06:36:06;;;;;;;0.00;0.00;;;;;20.80;100557.00;;;;5086765;28;20054;-79
2022/03/16 06:38:35;;;;;;;0.00;0.00;;;;;21.00;100547.00;;;;5102973;28;20040;-80
2022/03/16 06:41:05;;;;;;;0.00;0.00;;;;;21.00;100549.00;;;;5103180;28;20051;-79
2022/03/16 06:43:36;;;;;;;0.00;0.00;;;;;21.00;100537.00;;;;5102975;28;20044;-78
2022/03/16 06:46:05;;;;;;;0.00;0.00;;;;;21.00;100534.00;;;;5085422;28;20044;-80
2022/03/16 06:48:38;;;;;;;0.00;0.00;;;;;20.90;100518.00;;;;5101168;28;20105;-80
2022/03/16 06:51:08;;;;;;;0.00;0.00;;;;;21.00;100542.00;;;;5102830;28;20040;-76
2022/03/16 06:53:37;;;;;;;0.00;0.00;;;;;21.00;100547.00;;;;5102320;28;20040;-80
2022/03/16 06:56:07;;;;;;;0.00;0.00;;;;;21.10;100534.00;;;;5102980;28;20085;-79
2022/03/16 06:58:37;;;;;;;0.00;0.00;;;;;21.20;100549.00;;;;5102488;28;20043;-78
2022/03/16 07:01:06;;;;;;;0.00;0.00;;;;;21.10;100524.00;;;;5102533;28;20050;-79
2022/03/16 07:03:36;;;;;;;0.00;0.00;;;;;21.20;100541.00;;;;5085709;28;20048;-79
2022/03/16 07:06:08;;;;;;;0.00;0.00;;;;;21.30;100554.00;;;;5102576;28;20051;-79
2022/03/16 07:08:38;;;;;;;0.00;0.00;;;;;21.40;100577.00;;;;5087266;28;20047;-77
2022/03/16 07:11:07;;;;;;;0.00;0.00;;;;;21.30;100589.00;;;;5084942;28;20050;-78
2022/03/16 07:13:38;;;;;;;0.00;0.00;;;;;21.40;100597.00;;;;5086247;28;20446;-80
2022/03/16 07:16:07;;;;;;;0.00;0.00;;;;;21.30;100598.00;;;;5101638;28;20074;-78
2022/03/16 07:18:46;;;;;;;0.00;0.00;;;;;21.20;100578.00;;;;5085350;28;20098;-79
2022/03/16 07:21:16;;;;;;;0.00;0.00;;;;;21.30;100571.00;;;;5086552;28;20047;-79
2022/03/16 07:23:45;;;;;;;0.00;0.00;;;;;21.10;100581.00;;;;5086273;28;20032;-78
2022/03/16 07:26:15;;;;;;;0.00;0.00;;;;;21.10;100589.00;;;;5101909;28;20051;-79
2022/03/16 07:28:45;;;;;;;0.00;0.00;;;;;21.00;100591.00;;;;5102268;28;20130;-78
2022/03/16 07:31:14;;;;;;;0.00;0.00;;;;;20.90;100579.00;;;;5101713;28;20040;-80
2022/03/16 07:33:44;;;;;;;0.00;0.00;;;;;20.80;100586.00;;;;5101827;28;20743;-79
2022/03/16 07:36:13;;;;;;;0.00;0.00;;;;;20.70;100569.00;;;;5086584;28;20048;-77
2022/03/16 07:38:43;;;;;;;0.00;0.00;;;;;20.60;100591.00;;;;5102211;28;20044;-80
2022/03/16 07:41:12;;;;;;;0.00;0.00;;;;;20.60;100570.00;;;;5102109;28;20056;-80
2022/03/16 07:43:42;;;;;;;0.00;0.00;;;;;20.50;100566.00;;;;5101673;28;20059;-77
2022/03/16 07:46:11;;;;;;;0.00;0.00;;;;;20.50;100602.00;;;;5101467;28;20048;-79
2022/03/16 07:48:43;;;;;;;0.00;0.00;;;;;20.50;100611.00;;;;5102303;28;20044;-79
2022/03/16 07:51:14;;;;;;;0.00;0.00;;;;;20.50;100608.00;;;;5101950;28;20449;-78
2022/03/16 07:53:44;;;;;;;0.00;0.00;;;;;20.40;100603.00;;;;5101610;28;20098;-80
2022/03/16 07:56:13;;;;;;;0.00;0.00;;;;;20.40;100602.00;;;;5101586;28;20396;-78
2022/03/16 07:58:45;;;;;;;0.00;0.00;;;;;20.30;100602.00;;;;5087288;28;20094;-79
2022/03/16 08:01:15;;;;;;;0.00;0.00;;;;;20.20;100575.00;;;;5101533;28;20044;-78
2022/03/16 08:03:45;;;;;;;0.00;0.00;;;;;20.20;100586.00;;;;5086303;28;20052;-80
2022/03/16 08:06:14;;;;;;;0.00;0.00;;;;;20.10;100571.00;;;;5086258;28;20047;-80
2022/03/16 08:08:50;;;;;;;0.00;0.00;;;;;20.10;100592.00;;;;5101226;28;20058;-78
2022/03/16 08:11:19;;;;;;;0.00;0.00;;;;;20.10;100596.00;;;;5086231;28;20597;-77
2022/03/16 08:13:48;;;;;;;0.00;0.00;;;;;20.10;100582.00;;;;5101956;28;20066;-79
2022/03/16 08:16:18;;;;;;;0.00;0.00;;;;;20.10;100574.00;;;;5101774;28;20396;-79
2022/03/16 08:18:47;;;;;;;0.00;0.00;;;;;20.00;100561.00;;;;5101563;28;20064;-80
2022/03/16 08:21:16;;;;;;;0.00;0.00;;;;;20.00;100593.00;;;;5101025;28;20094;-78
2022/03/16 08:23:46;;;;;;;0.00;0.00;;;;;20.00;100600.00;;;;5101655;28;20055;-79
2022/03/16 08:26:16;;;;;;;0.00;0.00;;;;;20.00;100590.00;;;;5101075;28;20051;-80
2022/03/16 08:28:45;;;;;;;0.00;0.00;;;;;20.10;100575.00;;;;5101152;28;20568;-78
2022/03/16 08:31:15;;;;;;;0.00;0.00;;;;;20.00;100574.00;;;;5101077;28;20096;-78
2022/03/16 08:33:45;;;;;;;0.00;0.00;;;;;20.10;100580.00;;;;5088311;28;20052;-80
2022/03/16 08:36:15;;;;;;;0.00;0.00;;;;;20.00;100595.00;;;;5090192;28;20632;-78
2022/03/16 08:38:44;;;;;;;0.00;0.00;;;;;20.00;100604.00;;;;5104837;28;20044;-79
2022/03/16 08:41:14;;;;;;;0.00;0.00;;;;;20.00;100606.00;;;;5089638;28;20036;-79
2022/03/16 08:43:43;;;;;;;0.00;0.00;;;;;20.00;100598.00;;;;5104995;28;20113;-80
2022/03/16 08:46:13;;;;;;;0.00;0.00;;;;;20.00;100607.00;;;;5104919;28;20245;-79
2022/03/16 08:48:42;;;;;;;0.00;0.00;;;;;20.00;100595.00;;;;5089524;28;20051;-77
2022/03/16 08:51:12;;;;;;;0.00;0.00;;;;;19.90;100607.00;;;;5087779;28;20457;-80
2022/03/16 08:53:42;;;;;;;0.00;0.00;;;;;19.90;100587.00;;;;5104600;28;20051;-78
2022/03/16 08:56:12;;;;;;;0.00;0.00;;;;;19.90;100571.00;;;;5104860;28;20047;-80
2022/03/16 08:58:41;;;;;;;0.00;0.00;;;;;19.80;100589.00;;;;5104727;28;20043;-80
2022/03/16 09:01:10;;;;;;;0.00;0.00;;;;;19.80;100565.00;;;;5105018;28;20457;-79
2022/03/16 09:03:40;;;;;;;0.00;0.00;;;;;19.80;100579.00;;;;5089181;28;20050;-78
2022/03/16 09:06:10;;;;;;;0.00;0.00;;;;;19.80;100593.00;;;;5088492;28;20089;-80
2022/03/16 09:08:39;;;;;;;0.00;0.00;;;;;19.80;100572.00;;;;5104706;28;20048;-80
2022/03/16 09:11:09;;;;;;;0.00;0.00;;;;;19.80;100594.00;;;;5104459;28;20047;-78
2022/03/16 09:13:39;;;;;;;0.00;0.00;;;;;20.00;100600.00;;;;5104331;28;20608;-78
2022/03/16 09:16:08;;;;;;;0.00;0.00;;;;;20.00;100607.00;;;;5089116;28;20047;-80
2022/03/16 09:18:38;;;;;;;0.00;0.00;;;;;20.10;100602.00;;;;5103857;28;20439;-78
2022/03/16 09:21:07;;;;;;;0.00;0.00;;;;;20.00;100605.00;;;;5089300;28;20036;-80
2022/03/16 09:23:37;;;;;;;0.00;0.00;;;;;20.00;100605.00;;;;5104514;28;20051;-79
2022/03/16 09:26:07;;;;;;;0.00;0.00;;;;;20.00;100577.00;;;;5104198;28;20139;-80
2022/03/16 09:28:37;;;;;;;0.00;0.00;;;;;20.10;100610.00;;;;5087488;28;20521;-77
2022/03/16 09:31:09;;;;;;;0.00;0.00;;;;;20.00;100603.00;;;;5088221;28;20047;-79
2022/03/16 09:33:40;;;;;;;0.00;0.00;;;;;20.00;100607.00;;;;5104787;28;20048;-78
2022/03/16 09:36:09;;;;;;;0.00;0.00;;;;;20.10;100593.00;;;;5104030;28;20501;-79
2022/03/16 09:38:39;;;;;;;0.00;0.00;;;;;20.10;100622.00;;;;5088927;28;20091;-78
2022/03/16 09:41:09;;;;;;;0.00;0.00;;;;;20.10;100616.00;;;;5103751;28;20044;-81
2022/03/16 09:43:40;;;;;;;0.00;0.00;;;;;20.10;100622.00;;;;5087603;28;20046;-82
2022/03/16 09:46:19;;;;;;;0.00;0.00;;;;;20.10;100618.00;;;;5103359;28;20044;-79
2022/03/16 09:48:49;;;;;;;0.00;0.00;;;;;20.20;100619.00;;;;5103909;28;20093;-79
2022/03/16 09:51:19;;;;;;;0.00;0.00;;;;;20.20;100616.00;;;;5103809;28;20036;-79
2022/03/16 09:53:49;;;;;;;0.00;0.00;;;;;20.20;100613.00;;;;5088596;28;20063;-82
2022/03/16 09:56:20;;;;;;;0.00;0.00;;;;;20.20;100620.00;;;;5070514;28;20062;-80
2022/03/16 09:58:49;;;;;;;0.00;0.00;;;;;20.30;100623.00;;;;5103685;28;20064;-78
2022/03/16 10:01:19;;;;;;;0.00;0.00;;;;;20.50;100624.00;;;;5086609;28;20523;-77
2022/03/16 10:03:49;;;;;;;0.00;0.00;;;;;20.80;100645.00;;;;5084025;28;20119;-78
2022/03/16 10:06:24;;;;;;;0.00;0.00;;;;;20.90;100655.00;;;;5102602;28;20637;-79
2022/03/16 10:14:29;;;;;;;0.00;0.00;;;;;21.10;100659.00;;;;5088101;28;20097;-76
2022/03/16 10:19:57;;;;;;;0.00;0.00;;;;;21.20;100636.00;;;;5087808;28;21168;-76
2022/03/16 10:22:32;;;;;;;0.00;0.00;;;;;21.20;100640.00;;;;5088055;28;20379;-77
2022/03/16 10:25:08;;;;;;;0.00;0.00;;;;;21.20;100663.00;;;;5103037;28;20503;-78
2022/03/16 10:27:38;;;;;;;0.00;0.00;;;;;21.30;100655.00;;;;5086029;28;20103;-83
2022/03/16 10:30:08;;;;;;;0.00;0.00;;;;;21.40;100667.00;;;;5087379;28;20048;-78
2022/03/16 10:32:54;;;;;;;0.00;0.00;;;;;21.50;100687.00;;;;5087914;28;20048;-79
2022/03/16 10:35:26;;;;;;;0.00;0.00;;;;;21.80;100693.00;;;;5102748;28;20067;-78
2022/03/16 10:38:11;;;;;;;0.00;0.00;;;;;22.40;100669.00;;;;5102746;28;20047;-85
2022/03/16 10:40:40;;;;;;;0.00;0.00;;;;;22.60;100648.00;;;;5103327;28;20044;-79
2022/03/16 10:46:34;;;;;;;0.00;0.00;;;;;22.50;100697.00;;;;5102311;27;20062;-81
2022/03/16 10:49:07;;;;;;;0.00;0.00;;;;;22.50;100686.00;;;;5069175;28;20048;-80
2022/03/16 10:51:38;;;;;;;0.00;0.00;;;;;22.40;100684.00;;;;5087515;28;20093;-79
2022/03/16 10:54:25;;;;;;;0.00;0.00;;;;;22.60;100667.00;;;;5069950;28;20511;-81
2022/03/16 10:56:57;;;;;;;0.00;0.00;;;;;22.70;100656.00;;;;5084938;28;20058;-80
2022/03/16 10:59:30;;;;;;;0.00;0.00;;;;;23.10;100668.00;;;;5086600;28;20415;-79
2022/03/16 11:02:05;;;;;;;0.00;0.00;;;;;23.20;100683.00;;;;5085926;28;20520;-79
2022/03/16 11:04:36;;;;;;;0.00;0.00;;;;;23.20;100675.00;;;;5086631;28;20054;-79
2022/03/16 11:07:07;;;;;;;0.00;0.00;;;;;23.20;100696.00;;;;5086839;28;20048;-80
2022/03/16 11:09:38;;;;;;;0.00;0.00;;;;;23.20;100679.00;;;;5086624;28;20044;-77
2022/03/16 11:15:05;;;;;;;0.00;0.00;;;;;23.20;100709.00;;;;5086584;28;20044;-77
2022/03/16 11:17:36;;;;;;;0.00;0.00;;;;;23.10;100713.00;;;;5085484;28;20055;-80
2022/03/16 11:20:10;;;;;;;0.00;0.00;;;;;23.00;100703.00;;;;5087431;28;20055;-80
2022/03/16 11:25:55;;;;;;;0.00;0.00;;;;;22.70;100721.00;;;;5086633;28;20066;-81
2022/03/16 11:28:50;;;;;;;0.00;0.00;;;;;22.80;100719.00;;;;5085193;28;20492;-78
2022/03/16 11:31:42;;;;;;;0.00;0.00;;;;;22.90;100729.00;;;;5085305;28;20097;-78
2022/03/16 11:34:21;;;;;;;0.00;0.00;;;;;22.80;100707.00;;;;5085211;28;20052;-79
2022/03/16 11:37:02;;;;;;;0.00;0.00;;;;;22.80;100708.00;;;;5085366;28;20040;-77
2022/03/16 11:39:47;;;;;;;0.00;0.00;;;;;22.80;100720.00;;;;5084894;28;20044;-79
2022/03/16 11:42:18;;;;;;;0.00;0.00;;;;;22.80;100700.00;;;;5084729;28;20055;-78
2022/03/16 11:44:49;;;;;;;0.00;0.00;;;;;22.80;100715.00;;;;5085028;28;20052;-80
2022/03/16 11:47:22;;;;;;;0.00;0.00;;;;;23.00;100724.00;;;;5084945;28;20055;-80
2022/03/16 11:50:11;;;;;;;0.00;0.00;;;;;23.10;100726.00;;;;5067975;28;20048;-78
2022/03/16 11:53:17;;;;;;;0.00;0.00;;;;;23.30;100724.00;;;;5084788;28;20566;-80
2022/03/16 11:55:50;;;;;;;0.00;0.00;;;;;23.30;100704.00;;;;5064699;28;20155;-79
2022/03/16 11:58:29;;;;;;;0.00;0.00;;;;;23.60;100713.00;;;;5068644;28;20097;-80
2022/03/16 12:01:39;;;;;;;0.00;0.00;;;;;24.10;100729.00;;;;5084779;28;20044;-78
2022/03/16 12:04:15;;;;;;;0.00;0.00;;;;;24.60;100713.00;;;;5085387;28;20052;-78
2022/03/16 12:07:02;;;;;;;0.00;0.00;;;;;25.20;100726.00;;;;5084594;28;20051;-81
2022/03/16 12:09:45;;;;;;;0.00;0.00;;;;;25.50;100745.00;;;;5088978;28;20753;-79
2022/03/16 12:15:18;;;;;;;0.00;0.00;;;;;26.40;100697.00;;;;5091035;28;20617;-78
2022/03/16 12:17:56;;;;;;;0.00;0.00;;;;;26.80;100728.00;;;;5088444;28;20058;-78
2022/03/16 12:20:28;;;;;;;0.00;0.00;;;;;26.20;100728.00;;;;5089946;28;20040;-76
2022/03/16 12:23:01;;;;;;;0.00;0.00;;;;;26.20;100731.00;;;;5088622;28;20046;-81
2022/03/16 12:25:33;;;;;;;0.00;0.00;;;;;26.00;100738.00;;;;5088607;28;20134;-79
2022/03/16 12:30:59;;;;;;;0.00;0.00;;;;;25.10;100791.00;;;;5089758;28;20040;-81
2022/03/16 12:33:31;;;;;;;0.00;0.00;;;;;24.90;100768.00;;;;5090122;28;20553;-78
2022/03/16 12:36:02;;;;;;;0.00;0.00;;;;;24.80;100787.00;;;;5090390;28;20144;-77
2022/03/16 12:38:34;;;;;;;0.00;0.00;;;;;24.60;100799.00;;;;5072449;28;20052;-79
2022/03/16 12:43:59;;;;;;;0.00;0.00;;;;;24.90;100788.00;;;;5089110;28;20059;-77
2022/03/16 12:46:37;;;;;;;0.00;0.00;;;;;24.90;100798.00;;;;5088308;28;20537;-79
2022/03/16 12:49:13;;;;;;;0.00;0.00;;;;;25.00;100797.00;;;;5087745;28;20091;-76
2022/03/16 12:51:47;;;;;;;0.00;0.00;;;;;25.00;100790.00;;;;5071108;28;20051;-80
2022/03/16 12:54:27;;;;;;;0.00;0.00;;;;;24.80;100777.00;;;;5087505;28;20125;-81